createdAt,value
2022-11-26T00:02:28.682Z,100324.13
2022-11-26T00:04:57.984Z,100330.38
2022-11-26T00:07:28.506Z,100329.75
2022-11-26T00:09:57.113Z,100339.09
2022-11-26T00:12:27.705Z,100351.41
2022-11-26T00:14:55.845Z,100343.75
2022-11-26T00:17:23.418Z,100348.28
2022-11-26T00:19:50.890Z,100352.09
2022-11-26T00:22:40.480Z,100327.91
2022-11-26T00:25:14.594Z,100345.97
2022-11-26T00:27:42.146Z,100350.41
2022-11-26T00:30:25.444Z,100345.59
2022-11-26T00:32:54.320Z,100349.94
2022-11-26T00:35:23.359Z,100344.53
2022-11-26T00:37:57.047Z,100342.44
2022-11-26T00:40:31.508Z,100339.50
2022-11-26T00:43:01.837Z,100341.84
2022-11-26T00:45:31.506Z,100346.16
2022-11-26T00:47:58.940Z,100342.16
2022-11-26T00:50:27.935Z,100335.34
2022-11-26T00:52:57.126Z,100327.06
2022-11-26T00:55:30.640Z,100345.00
2022-11-26T00:57:58.364Z,100338.00
2022-11-26T01:00:46.340Z,100352.97
2022-11-26T01:03:13.694Z,100348.19
2022-11-26T01:05:41.198Z,100351.59
2022-11-26T01:08:41.126Z,100359.25
2022-11-26T01:11:16.620Z,100360.50
2022-11-26T01:13:46.248Z,100354.09
2022-11-26T01:16:20.987Z,100356.59
2022-11-26T01:18:49.754Z,100354.56
2022-11-26T01:21:17.612Z,100363.16
2022-11-26T01:23:45.536Z,100364.97
2022-11-26T01:26:23.368Z,100350.19
2022-11-26T01:28:51.732Z,100355.69
2022-11-26T01:31:22.781Z,100362.63
2022-11-26T01:33:50.334Z,100371.09
2022-11-26T01:36:20.488Z,100386.41
2022-11-26T01:38:48.256Z,100371.69
2022-11-26T01:41:35.033Z,100362.53
2022-11-26T01:44:04.822Z,100379.31
2022-11-26T01:46:36.830Z,100380.94
2022-11-26T01:49:25.697Z,100379.47
2022-11-26T01:52:25.071Z,100380.56
2022-11-26T01:54:53.710Z,100394.72
2022-11-26T01:57:30.328Z,100389.25
2022-11-26T02:00:04.244Z,100379.94
2022-11-26T02:02:41.471Z,100393.66
2022-11-26T02:05:18.373Z,100386.38
2022-11-26T02:07:46.986Z,100393.56
2022-11-26T02:10:15.258Z,100397.38
2022-11-26T02:12:43.497Z,100396.66
2022-11-26T02:15:12.744Z,100393.94
2022-11-26T02:17:42.806Z,100402.50
2022-11-26T02:20:16.100Z,100400.03
2022-11-26T02:22:49.728Z,100397.44
2022-11-26T02:25:28.005Z,100393.75
2022-11-26T02:28:07.130Z,100392.78
2022-11-26T02:30:43.273Z,100400.75
2022-11-26T02:33:36.776Z,100395.19
2022-11-26T02:36:13.479Z,100402.31
2022-11-26T02:38:41.537Z,100389.94
2022-11-26T02:41:09.556Z,100389.06
2022-11-26T02:43:38.710Z,100392.38
2022-11-26T02:46:12.129Z,100397.41
2022-11-26T02:48:42.382Z,100394.13
2022-11-26T02:51:21.136Z,100391.59
2022-11-26T02:53:51.156Z,100392.41
2022-11-26T02:56:27.837Z,100394.28
2022-11-26T02:58:56.503Z,100404.88
2022-11-26T03:01:32.132Z,100393.28
2022-11-26T03:04:06.350Z,100399.38
2022-11-26T03:06:35.189Z,100403.81
2022-11-26T03:09:02.884Z,100394.41
2022-11-26T03:11:30.596Z,100396.06
2022-11-26T03:13:58.116Z,100399.31
2022-11-26T03:16:25.535Z,100391.13
2022-11-26T03:18:52.958Z,100400.53
2022-11-26T03:21:20.329Z,100401.56
2022-11-26T03:23:47.666Z,100402.31
2022-11-26T03:26:15.105Z,100389.91
2022-11-26T03:28:42.491Z,100403.63
2022-11-26T03:31:10.003Z,100407.59
2022-11-26T03:33:37.345Z,100399.41
2022-11-26T03:36:04.930Z,100420.72
2022-11-26T03:38:32.277Z,100414.97
2022-11-26T03:41:01.859Z,100417.81
2022-11-26T03:43:29.320Z,100415.63
2022-11-26T03:45:57.824Z,100417.94
2022-11-26T03:48:25.227Z,100409.09
2022-11-26T03:50:52.624Z,100417.53
2022-11-26T03:53:20.061Z,100409.22
2022-11-26T03:55:47.965Z,100432.72
2022-11-26T03:58:15.442Z,100412.88
2022-11-26T04:00:42.879Z,100413.25
2022-11-26T04:03:10.315Z,100418.31
2022-11-26T04:05:37.744Z,100423.00
2022-11-26T04:08:05.146Z,100431.22
2022-11-26T04:10:32.608Z,100435.69
2022-11-26T04:13:00.004Z,100423.97
2022-11-26T04:15:27.359Z,100418.47
2022-11-26T04:17:54.799Z,100434.88
2022-11-26T04:20:22.249Z,100428.28
2022-11-26T04:22:49.798Z,100435.09
2022-11-26T04:25:17.210Z,100438.50
2022-11-26T04:27:44.526Z,100434.19
2022-11-26T04:30:12.361Z,100442.97
2022-11-26T04:32:40.222Z,100444.16
2022-11-26T04:35:08.947Z,100444.25
2022-11-26T04:37:36.859Z,100440.97
2022-11-26T04:40:04.526Z,100440.97
2022-11-26T04:42:32.001Z,100435.91
2022-11-26T04:44:59.598Z,100452.94
2022-11-26T04:47:27.072Z,100450.59
2022-11-26T04:49:54.459Z,100461.75
2022-11-26T04:52:22.048Z,100453.16
2022-11-26T04:54:49.381Z,100451.19
2022-11-26T04:57:16.915Z,100448.94
2022-11-26T04:59:44.403Z,100446.34
2022-11-26T05:02:11.662Z,100459.38
2022-11-26T05:04:39.195Z,100453.06
2022-11-26T05:07:06.730Z,100444.25
2022-11-26T05:09:34.233Z,100447.41
2022-11-26T05:12:01.587Z,100451.00
2022-11-26T05:14:28.967Z,100446.38
2022-11-26T05:16:56.323Z,100451.34
2022-11-26T05:19:23.766Z,100458.63
2022-11-26T05:21:51.146Z,100445.28
2022-11-26T05:24:18.505Z,100458.16
2022-11-26T05:26:45.906Z,100448.97
2022-11-26T05:29:13.187Z,100465.03
2022-11-26T05:31:40.809Z,100467.56
2022-11-26T05:34:08.384Z,100468.59
2022-11-26T05:36:35.800Z,100472.16
2022-11-26T05:39:03.841Z,100470.78
2022-11-26T05:41:31.273Z,100459.66
2022-11-26T05:43:58.641Z,100484.84
2022-11-26T05:46:27.515Z,100467.53
2022-11-26T05:48:54.820Z,100472.22
2022-11-26T05:51:22.671Z,100469.38
2022-11-26T05:53:50.057Z,100460.75
2022-11-26T05:56:17.420Z,100467.66
2022-11-26T05:58:44.968Z,100474.53
2022-11-26T06:01:12.281Z,100473.81
2022-11-26T06:03:40.819Z,100473.53
2022-11-26T06:06:09.605Z,100475.81
2022-11-26T06:08:37.457Z,100479.19
2022-11-26T06:11:04.971Z,100469.22
2022-11-26T06:13:32.377Z,100467.19
2022-11-26T06:15:59.965Z,100470.25
2022-11-26T06:18:27.427Z,100465.00
2022-11-26T06:20:54.782Z,100473.88
2022-11-26T06:23:22.229Z,100469.38
2022-11-26T06:25:50.154Z,100475.25
2022-11-26T06:28:17.669Z,100478.78
2022-11-26T06:30:46.320Z,100462.81
2022-11-26T06:33:14.236Z,100472.28
2022-11-26T06:35:41.833Z,100475.72
2022-11-26T06:38:09.754Z,100475.00
2022-11-26T06:40:37.080Z,100473.09
2022-11-26T06:43:04.473Z,100469.13
2022-11-26T06:45:31.945Z,100484.56
2022-11-26T06:47:59.320Z,100482.81
2022-11-26T06:50:26.801Z,100469.66
2022-11-26T06:52:54.289Z,100470.69
2022-11-26T06:55:22.063Z,100468.06
2022-11-26T06:57:51.490Z,100458.78
2022-11-26T07:00:19.305Z,100457.72
2022-11-26T07:02:46.774Z,100471.38
2022-11-26T07:05:14.528Z,100472.25
2022-11-26T07:07:42.292Z,100456.06
2022-11-26T07:10:10.029Z,100462.69
2022-11-26T07:12:37.373Z,100455.50
2022-11-26T07:15:05.784Z,100460.66
2022-11-26T07:17:33.149Z,100457.63
2022-11-26T07:20:00.469Z,100449.97
2022-11-26T07:22:27.962Z,100456.50
2022-11-26T07:24:55.300Z,100454.91
2022-11-26T07:27:22.690Z,100470.06
2022-11-26T07:29:52.192Z,100464.06
2022-11-26T07:32:19.609Z,100468.19
2022-11-26T07:34:46.986Z,100460.72
2022-11-26T07:37:14.477Z,100458.94
2022-11-26T07:39:41.802Z,100459.25
2022-11-26T07:42:09.255Z,100471.16
2022-11-26T07:44:37.388Z,100463.00
2022-11-26T07:47:04.963Z,100475.13
2022-11-26T07:49:32.379Z,100481.84
2022-11-26T07:51:59.738Z,100478.94
2022-11-26T07:54:27.078Z,100466.66
2022-11-26T07:56:54.517Z,100466.84
2022-11-26T07:59:22.839Z,100475.34
2022-11-26T08:01:50.312Z,100477.13
2022-11-26T08:04:17.741Z,100480.06
2022-11-26T08:06:45.155Z,100479.91
2022-11-26T08:09:12.577Z,100473.81
2022-11-26T08:11:40.012Z,100467.72
2022-11-26T08:14:11.315Z,100464.97
2022-11-26T08:16:39.410Z,100473.91
2022-11-26T08:19:11.240Z,100481.19
2022-11-26T08:21:39.814Z,100490.53
2022-11-26T08:24:08.863Z,100471.16
2022-11-26T08:26:39.877Z,100475.78
2022-11-26T08:29:11.301Z,100480.31
2022-11-26T08:31:45.590Z,100473.56
2022-11-26T08:34:16.142Z,100477.13
2022-11-26T08:36:44.865Z,100475.19
2022-11-26T08:39:17.749Z,100482.13
2022-11-26T08:41:51.650Z,100478.19
2022-11-26T08:44:20.351Z,100486.28
2022-11-26T08:46:48.251Z,100476.72
2022-11-26T08:49:17.252Z,100464.84
2022-11-26T08:51:45.043Z,100468.63
2022-11-26T08:54:12.526Z,100457.78
2022-11-26T08:56:41.429Z,100462.75
2022-11-26T08:59:08.786Z,100480.59
2022-11-26T09:01:36.304Z,100461.34
2022-11-26T09:04:04.993Z,100466.59
2022-11-26T09:06:36.870Z,100464.44
2022-11-26T09:09:15.634Z,100474.56
2022-11-26T09:11:50.894Z,100470.72
2022-11-26T09:14:21.543Z,100474.09
2022-11-26T09:16:49.166Z,100460.59
2022-11-26T09:19:17.559Z,100466.47
2022-11-26T09:21:45.712Z,100451.72
2022-11-26T09:24:13.488Z,100463.84
2022-11-26T09:26:41.344Z,100465.38
2022-11-26T09:29:10.369Z,100463.31
2022-11-26T09:31:49.801Z,100462.63
2022-11-26T09:34:25.150Z,100465.25
2022-11-26T09:36:52.646Z,100458.03
2022-11-26T09:39:20.123Z,100462.97
2022-11-26T09:42:09.021Z,100456.66
2022-11-26T09:45:05.682Z,100454.22
2022-11-26T09:47:45.865Z,100460.78
2022-11-26T09:50:16.041Z,100440.81
2022-11-26T09:53:08.303Z,100454.50
2022-11-26T09:55:39.063Z,100444.41
2022-11-26T09:58:16.632Z,100464.50
2022-11-26T10:00:47.140Z,100452.34
2022-11-26T10:03:18.923Z,100458.38
2022-11-26T10:05:51.086Z,100462.06
2022-11-26T10:08:31.651Z,100462.72
2022-11-26T10:11:11.095Z,100466.81
2022-11-26T10:13:48.475Z,100470.22
2022-11-26T10:16:19.175Z,100454.78
2022-11-26T10:19:20.937Z,100471.34
2022-11-26T10:22:03.820Z,100473.78
2022-11-26T10:24:37.109Z,100472.44
2022-11-26T10:27:18.584Z,100472.28
2022-11-26T10:30:28.553Z,100459.84
2022-11-26T10:32:58.778Z,100466.53
2022-11-26T10:35:30.121Z,100455.63
2022-11-26T10:37:58.553Z,100466.16
2022-11-26T10:40:33.272Z,100464.38
2022-11-26T10:43:06.568Z,100458.91
2022-11-26T10:45:41.067Z,100457.53
2022-11-26T10:48:29.477Z,100459.88
2022-11-26T10:51:00.149Z,100446.88
2022-11-26T10:53:31.323Z,100452.19
2022-11-26T10:56:06.200Z,100440.22
2022-11-26T10:58:41.328Z,100443.97
2022-11-26T11:01:11.144Z,100434.50
2022-11-26T11:06:42.859Z,100437.50
2022-11-26T11:09:29.183Z,100433.53
2022-11-26T11:12:12.022Z,100427.59
2022-11-26T11:14:43.455Z,100428.69
2022-11-26T11:17:41.279Z,100427.72
2022-11-26T11:20:17.937Z,100421.75
2022-11-26T11:22:47.384Z,100402.91
2022-11-26T11:25:28.020Z,100429.94
2022-11-26T11:28:03.244Z,100426.63
2022-11-26T11:30:37.935Z,100427.22
2022-11-26T11:33:26.497Z,100438.00
2022-11-26T11:36:01.572Z,100417.13
2022-11-26T11:38:32.140Z,100429.69
2022-11-26T11:41:05.388Z,100425.44
2022-11-26T11:43:37.390Z,100431.84
2022-11-26T11:46:23.009Z,100424.56
2022-11-26T11:49:11.687Z,100430.94
2022-11-26T11:52:09.027Z,100429.56
2022-11-26T11:55:15.464Z,100424.25
2022-11-26T11:57:42.947Z,100426.16
2022-11-26T12:00:30.693Z,100436.88
2022-11-26T12:03:25.921Z,100429.28
2022-11-26T12:06:17.976Z,100421.66
2022-11-26T12:08:52.753Z,100415.16
2022-11-26T12:11:20.471Z,100423.88
2022-11-26T12:13:54.064Z,100424.31
2022-11-26T12:16:26.390Z,100411.56
2022-11-26T12:19:12.428Z,100429.19
2022-11-26T12:21:55.550Z,100415.84
2022-11-26T12:25:04.315Z,100411.06
2022-11-26T12:27:58.432Z,100415.13
2022-11-26T12:30:37.309Z,100432.41
2022-11-26T12:33:16.434Z,100416.81
2022-11-26T12:35:50.979Z,100414.53
2022-11-26T12:38:38.923Z,100430.56
2022-11-26T12:41:11.574Z,100408.72
2022-11-26T12:44:01.862Z,100416.56
2022-11-26T12:46:33.018Z,100405.13
2022-11-26T12:49:48.120Z,100409.66
2022-11-26T12:52:24.604Z,100401.72
2022-11-26T12:55:24.503Z,100411.56
2022-11-26T12:58:01.577Z,100405.19
2022-11-26T13:00:36.425Z,100400.84
2022-11-26T13:03:06.970Z,100412.94
2022-11-26T13:06:22.229Z,100427.19
2022-11-26T13:08:56.183Z,100408.97
2022-11-26T13:11:45.202Z,100396.66
2022-11-26T13:14:15.570Z,100380.69
2022-11-26T13:16:56.345Z,100378.22
2022-11-26T13:19:29.849Z,100392.22
2022-11-26T13:22:15.091Z,100400.88
2022-11-26T13:25:16.122Z,100390.41
2022-11-26T13:28:00.954Z,100384.22
2022-11-26T13:30:38.589Z,100372.31
2022-11-26T13:33:31.185Z,100377.72
2022-11-26T13:36:17.088Z,100377.22
2022-11-26T13:39:22.035Z,100366.44
2022-11-26T13:42:07.891Z,100371.72
2022-11-26T13:44:51.575Z,100379.00
2022-11-26T13:47:41.986Z,100379.69
2022-11-26T13:50:43.311Z,100371.69
2022-11-26T13:53:28.608Z,100389.09
2022-11-26T13:56:04.305Z,100387.19
2022-11-26T13:58:37.786Z,100382.03
2022-11-26T14:01:23.986Z,100379.47
2022-11-26T14:03:51.767Z,100385.50
2022-11-26T14:06:20.455Z,100377.34
2022-11-26T14:08:50.924Z,100377.88
2022-11-26T14:11:46.021Z,100371.56
2022-11-26T14:14:25.710Z,100375.47
2022-11-26T14:17:02.508Z,100366.56
2022-11-26T14:19:45.109Z,100369.03
2022-11-26T14:22:21.870Z,100364.34
2022-11-26T14:24:49.635Z,100359.06
2022-11-26T14:27:18.728Z,100358.72
2022-11-26T14:29:48.267Z,100364.63
2022-11-26T14:32:18.321Z,100358.19
2022-11-26T14:34:54.759Z,100359.94
2022-11-26T14:37:31.287Z,100360.53
2022-11-26T14:40:05.626Z,100360.94
2022-11-26T14:42:33.404Z,100354.69
2022-11-26T14:45:15.605Z,100347.31
2022-11-26T14:47:49.600Z,100351.97
2022-11-26T14:50:21.266Z,100349.53
2022-11-26T14:52:55.765Z,100351.06
2022-11-26T14:55:28.384Z,100359.00
2022-11-26T14:58:04.854Z,100353.09
2022-11-26T15:00:35.858Z,100356.69
2022-11-26T15:03:04.470Z,100352.59
2022-11-26T15:05:42.047Z,100358.00
2022-11-26T15:08:20.552Z,100323.75
2022-11-26T15:10:48.107Z,100356.00
2022-11-26T15:13:41.123Z,100358.47
2022-11-26T15:16:27.844Z,100355.06
2022-11-26T15:18:57.600Z,100354.97
2022-11-26T15:21:27.534Z,100357.19
2022-11-26T15:23:59.443Z,100340.19
2022-11-26T15:26:34.632Z,100343.44
2022-11-26T15:29:02.889Z,100345.94
2022-11-26T15:31:43.049Z,100338.56
2022-11-26T15:34:13.490Z,100356.59
2022-11-26T15:36:41.549Z,100352.38
2022-11-26T15:39:24.963Z,100340.53
2022-11-26T15:41:54.007Z,100336.41
2022-11-26T15:44:25.586Z,100347.84
2022-11-26T15:46:55.928Z,100336.69
2022-11-26T15:49:32.514Z,100328.34
2022-11-26T15:52:04.162Z,100332.22
2022-11-26T15:54:49.569Z,100329.66
2022-11-26T15:57:33.206Z,100333.28
2022-11-26T16:00:42.110Z,100341.47
2022-11-26T16:03:42.306Z,100335.50
2022-11-26T16:06:33.407Z,100343.84
2022-11-26T16:09:12.547Z,100339.72
2022-11-26T16:11:57.228Z,100334.06
2022-11-26T16:14:37.413Z,100330.19
2022-11-26T16:17:08.686Z,100337.25
2022-11-26T16:19:37.981Z,100338.56
2022-11-26T16:22:14.619Z,100340.53
2022-11-26T16:24:44.130Z,100344.53
2022-11-26T16:27:18.794Z,100331.03
2022-11-26T16:29:47.112Z,100348.19
2022-11-26T16:32:17.323Z,100337.50
2022-11-26T16:34:45.728Z,100335.50
2022-11-26T16:37:32.145Z,100347.22
2022-11-26T16:40:21.895Z,100314.06
2022-11-26T16:42:50.213Z,100325.41
2022-11-26T16:45:18.538Z,100325.06
2022-11-26T16:47:54.849Z,100331.38
2022-11-26T16:50:26.127Z,100333.72
2022-11-26T16:52:55.114Z,100319.91
2022-11-26T16:55:25.747Z,100335.38
2022-11-26T16:57:59.954Z,100331.06
2022-11-26T17:00:28.656Z,100335.88
2022-11-26T17:02:56.363Z,100324.38
2022-11-26T17:05:25.189Z,100329.66
2022-11-26T17:07:56.063Z,100320.28
2022-11-26T17:10:29.127Z,100322.97
2022-11-26T17:12:57.404Z,100317.69
2022-11-26T17:15:25.040Z,100322.84
2022-11-26T17:17:54.751Z,100324.03
2022-11-26T17:20:27.606Z,100321.38
2022-11-26T17:22:55.273Z,100315.75
2022-11-26T17:25:22.946Z,100322.06
2022-11-26T17:27:53.839Z,100333.78
2022-11-26T17:30:24.545Z,100323.38
2022-11-26T17:32:52.234Z,100325.00
2022-11-26T17:35:21.260Z,100303.53
2022-11-26T17:37:48.805Z,100333.47
2022-11-26T17:40:23.752Z,100330.84
2022-11-26T17:42:51.513Z,100331.53
2022-11-26T17:45:20.025Z,100333.31
2022-11-26T17:47:47.920Z,100328.03
2022-11-26T17:50:25.708Z,100324.31
2022-11-26T17:52:55.128Z,100326.47
2022-11-26T17:55:24.492Z,100318.38
2022-11-26T17:57:52.577Z,100315.75
2022-11-26T18:00:24.050Z,100313.66
2022-11-26T18:02:52.779Z,100303.19
2022-11-26T18:05:20.845Z,100320.94
2022-11-26T18:07:50.210Z,100317.63
2022-11-26T18:10:20.076Z,100312.72
2022-11-26T18:12:48.456Z,100301.06
2022-11-26T18:15:24.105Z,100301.53
2022-11-26T18:17:54.053Z,100302.72
2022-11-26T18:20:27.381Z,100286.56
2022-11-26T18:22:58.013Z,100297.44
2022-11-26T18:25:26.055Z,100298.53
2022-11-26T18:27:54.177Z,100291.59
2022-11-26T18:30:21.912Z,100296.19
2022-11-26T18:32:49.496Z,100288.56
2022-11-26T18:35:17.609Z,100285.97
2022-11-26T18:37:45.099Z,100285.66
2022-11-26T18:40:17.136Z,100294.22
2022-11-26T18:42:45.215Z,100280.66
2022-11-26T18:45:16.237Z,100285.81
2022-11-26T18:47:44.185Z,100276.41
2022-11-26T18:50:14.117Z,100289.19
2022-11-26T18:52:42.377Z,100287.22
2022-11-26T18:55:10.115Z,100276.47
2022-11-26T18:57:37.694Z,100288.19
2022-11-26T19:00:06.388Z,100282.63
2022-11-26T19:02:38.650Z,100282.31
2022-11-26T19:05:06.641Z,100284.78
2022-11-26T19:07:34.340Z,100282.97
2022-11-26T19:10:22.034Z,100289.88
2022-11-26T19:12:49.388Z,100284.84
2022-11-26T19:15:17.152Z,100287.91
2022-11-26T19:17:44.836Z,100287.28
2022-11-26T19:20:14.427Z,100290.72
2022-11-26T19:22:43.107Z,100284.72
2022-11-26T19:25:10.888Z,100293.03
2022-11-26T19:27:38.717Z,100296.50
2022-11-26T19:30:08.175Z,100296.75
2022-11-26T19:32:37.615Z,100285.63
2022-11-26T19:35:06.248Z,100289.84
2022-11-26T19:37:34.036Z,100292.78
2022-11-26T19:40:01.923Z,100295.09
2022-11-26T19:42:30.954Z,100284.47
2022-11-26T19:44:58.397Z,100294.66
2022-11-26T19:47:33.333Z,100292.75
2022-11-26T19:50:01.954Z,100278.78
2022-11-26T19:52:29.992Z,100284.75
2022-11-26T19:54:57.971Z,100289.41
2022-11-26T19:57:25.429Z,100286.09
2022-11-26T19:59:53.144Z,100285.59
2022-11-26T20:02:20.801Z,100277.63
2022-11-26T20:04:48.324Z,100275.84
2022-11-26T20:07:32.821Z,100281.94
2022-11-26T20:10:00.299Z,100283.59
2022-11-26T20:12:27.855Z,100282.50
2022-11-26T20:14:55.387Z,100282.75
2022-11-26T20:17:22.877Z,100285.78
2022-11-26T20:19:50.491Z,100279.97
2022-11-26T20:22:18.270Z,100281.22
2022-11-26T20:24:45.902Z,100279.94
2022-11-26T20:27:13.247Z,100273.63
2022-11-26T20:29:40.862Z,100272.47
2022-11-26T20:32:08.866Z,100275.13
2022-11-26T20:34:36.206Z,100273.28
2022-11-26T20:37:04.132Z,100276.19
2022-11-26T20:39:31.581Z,100274.31
2022-11-26T20:41:59.109Z,100270.53
2022-11-26T20:44:28.706Z,100270.13
2022-11-26T20:46:57.878Z,100271.50
2022-11-26T20:49:28.446Z,100276.84
2022-11-26T20:51:58.186Z,100270.72
2022-11-26T20:54:25.654Z,100270.56
2022-11-26T20:56:53.086Z,100270.44
2022-11-26T20:59:20.518Z,100275.06
2022-11-26T21:01:47.896Z,100266.78
2022-11-26T21:04:15.487Z,100272.22
2022-11-26T21:06:44.112Z,100269.91
2022-11-26T21:09:13.821Z,100267.84
2022-11-26T21:11:41.711Z,100256.13
2022-11-26T21:14:14.587Z,100257.22
2022-11-26T21:16:42.821Z,100251.91
2022-11-26T21:19:13.482Z,100249.03
2022-11-26T21:21:40.998Z,100261.19
2022-11-26T21:24:09.188Z,100263.75
2022-11-26T21:26:36.633Z,100264.72
2022-11-26T21:29:04.126Z,100267.84
2022-11-26T21:31:32.697Z,100259.78
2022-11-26T21:34:02.834Z,100251.19
2022-11-26T21:36:31.878Z,100257.16
2022-11-26T21:38:59.663Z,100256.91
2022-11-26T21:41:27.670Z,100262.78
2022-11-26T21:43:55.266Z,100267.00
2022-11-26T21:46:25.764Z,100272.88
2022-11-26T21:48:54.207Z,100267.81
2022-11-26T21:51:22.449Z,100271.22
2022-11-26T21:53:50.443Z,100255.66
2022-11-26T21:56:20.668Z,100269.16
2022-11-26T21:58:49.212Z,100265.75
2022-11-26T22:01:27.130Z,100271.75
2022-11-26T22:03:56.654Z,100257.75
2022-11-26T22:06:24.523Z,100276.69
2022-11-26T22:08:53.231Z,100274.22
2022-11-26T22:11:30.232Z,100269.47
2022-11-26T22:13:57.980Z,100271.06
2022-11-26T22:16:30.167Z,100263.28
2022-11-26T22:18:59.196Z,100275.97
2022-11-26T22:21:30.262Z,100267.66
2022-11-26T22:23:59.299Z,100270.94
2022-11-26T22:26:27.574Z,100256.47
2022-11-26T22:28:58.210Z,100259.31
2022-11-26T22:31:28.908Z,100265.03
2022-11-26T22:34:17.651Z,100255.75
2022-11-26T22:36:46.001Z,100251.41
2022-11-26T22:39:15.836Z,100257.53
2022-11-26T22:41:44.360Z,100256.31
2022-11-26T22:44:12.995Z,100252.09
2022-11-26T22:46:40.508Z,100251.41
2022-11-26T22:49:10.901Z,100238.75
2022-11-26T22:51:38.240Z,100248.16
2022-11-26T22:54:07.682Z,100247.97
2022-11-26T22:56:38.018Z,100251.53
2022-11-26T22:59:07.112Z,100251.03
2022-11-26T23:01:36.317Z,100255.81
2022-11-26T23:04:07.247Z,100250.63
2022-11-26T23:06:36.099Z,100253.50
2022-11-26T23:09:06.355Z,100255.53
2022-11-26T23:11:41.531Z,100253.06
2022-11-26T23:14:09.781Z,100249.97
2022-11-26T23:16:39.914Z,100244.91
2022-11-26T23:19:07.953Z,100238.50
2022-11-26T23:21:40.282Z,100247.75
2022-11-26T23:24:08.228Z,100238.38
2022-11-26T23:26:38.287Z,100233.44
2022-11-26T23:29:07.105Z,100240.28
2022-11-26T23:31:38.790Z,100247.53
2022-11-26T23:34:07.441Z,100238.50
2022-11-26T23:36:35.058Z,100238.94
2022-11-26T23:39:05.407Z,100240.31
2022-11-26T23:41:32.874Z,100246.28
2022-11-26T23:44:00.515Z,100239.34
2022-11-26T23:46:32.723Z,100238.66
2022-11-26T23:49:00.231Z,100230.50
2022-11-26T23:51:31.198Z,100239.19
2022-11-26T23:53:58.633Z,100229.25
2022-11-26T23:56:28.862Z,100228.28
2022-11-26T23:58:58.638Z,100231.28
